Time;durP1;ratioP1;P1;durP2;ratioP2;P2;SDS_P1;SDS_P2;PMS_P1;PMS_P2;Temp;Humidity;BMP_temperature;BMP_pressure;BME280_temperature;BME280_humidity;BME280_pressure;Samples;Min_cycle;Max_cycle;Signal;HPM_P1;HPM_P2
2023/12/14 00:00:08;;;;;;;1.00;0.90;;;;;;;;;;5046529;28;20360;-61
2023/12/14 00:02:37;;;;;;;0.93;0.70;;;;;;;;;;5047844;28;20490;-60
2023/12/14 00:05:06;;;;;;;0.95;0.70;;;;;;;;;;5049193;28;20045;-62
2023/12/14 00:07:35;;;;;;;0.80;0.60;;;;;;;;;;5047460;28;20044;-64
2023/12/14 00:10:04;;;;;;;0.70;0.70;;;;;;;;;;5047052;28;20075;-64
2023/12/14 00:12:33;;;;;;;0.70;0.70;;;;;;;;;;5046636;28;20044;-62
2023/12/14 00:15:03;;;;;;;0.60;0.60;;;;;;;;;;5047255;28;20073;-63
2023/12/14 00:17:31;;;;;;;0.70;0.70;;;;;;;;;;5046753;28;20103;-62
2023/12/14 00:20:00;;;;;;;0.90;0.85;;;;;;;;;;5046316;28;20049;-63
2023/12/14 00:22:28;;;;;;;0.63;0.63;;;;;;;;;;5045240;28;20037;-62
2023/12/14 00:24:57;;;;;;;1.20;0.80;;;;;;;;;;5044644;28;20049;-62
2023/12/14 00:27:25;;;;;;;0.68;0.68;;;;;;;;;;5045118;28;20048;-61
2023/12/14 00:29:54;;;;;;;0.63;0.63;;;;;;;;;;5044369;28;20094;-61
2023/12/14 00:32:23;;;;;;;0.55;0.55;;;;;;;;;;5047361;28;20056;-61
2023/12/14 00:34:52;;;;;;;0.95;0.73;;;;;;;;;;5047313;28;20131;-63
2023/12/14 00:37:20;;;;;;;0.95;0.77;;;;;;;;;;5047242;28;20129;-62
2023/12/14 00:39:49;;;;;;;1.40;0.80;;;;;;;;;;5047925;28;20524;-63
2023/12/14 00:42:17;;;;;;;0.98;0.85;;;;;;;;;;5048744;28;20094;-62
2023/12/14 00:44:45;;;;;;;0.70;0.70;;;;;;;;;;5044001;28;20304;-61
2023/12/14 00:47:14;;;;;;;1.92;1.13;;;;;;;;;;5046496;28;20060;-61
2023/12/14 00:49:43;;;;;;;2.45;1.10;;;;;;;;;;5047678;28;20044;-65
2023/12/14 00:52:12;;;;;;;1.83;0.90;;;;;;;;;;5045345;28;20040;-61
2023/12/14 00:54:40;;;;;;;2.00;0.90;;;;;;;;;;5042939;28;20064;-61
2023/12/14 00:57:09;;;;;;;1.15;0.80;;;;;;;;;;5046449;28;20583;-62
2023/12/14 00:59:37;;;;;;;1.25;1.10;;;;;;;;;;5046900;28;20406;-62
2023/12/14 01:02:06;;;;;;;0.93;0.80;;;;;;;;;;5043349;28;20395;-62
2023/12/14 01:04:34;;;;;;;1.17;0.90;;;;;;;;;;5044370;28;20458;-62
2023/12/14 01:07:04;;;;;;;1.00;0.90;;;;;;;;;;5047427;28;20079;-62
2023/12/14 01:09:32;;;;;;;0.70;0.70;;;;;;;;;;5044041;28;20069;-65
2023/12/14 01:12:01;;;;;;;0.95;0.90;;;;;;;;;;5046793;28;20465;-63
2023/12/14 01:14:29;;;;;;;1.50;0.90;;;;;;;;;;5043221;28;20044;-62
2023/12/14 01:16:58;;;;;;;0.75;0.75;;;;;;;;;;5046993;28;20075;-62
2023/12/14 01:19:26;;;;;;;0.80;0.80;;;;;;;;;;5042854;28;20056;-62
2023/12/14 01:21:56;;;;;;;1.17;1.05;;;;;;;;;;5047499;28;20482;-62
2023/12/14 01:24:25;;;;;;;1.83;1.08;;;;;;;;;;5044585;28;20103;-64
2023/12/14 01:26:54;;;;;;;1.27;1.02;;;;;;;;;;5046677;28;20109;-63
2023/12/14 01:29:22;;;;;;;1.38;0.93;;;;;;;;;;5047182;28;20150;-62
2023/12/14 01:31:50;;;;;;;0.80;0.80;;;;;;;;;;5045838;28;20044;-62
2023/12/14 01:34:19;;;;;;;0.80;0.70;;;;;;;;;;5043651;28;20081;-62
2023/12/14 01:36:47;;;;;;;1.48;1.00;;;;;;;;;;5045493;28;20091;-66
2023/12/14 01:39:16;;;;;;;0.80;0.70;;;;;;;;;;5043047;28;20084;-66
2023/12/14 01:41:45;;;;;;;0.90;0.75;;;;;;;;;;5046854;28;20057;-62
2023/12/14 01:44:14;;;;;;;0.70;0.70;;;;;;;;;;5047344;28;20470;-61
2023/12/14 01:46:42;;;;;;;0.73;0.73;;;;;;;;;;5040017;28;20045;-63
2023/12/14 01:49:11;;;;;;;0.70;0.70;;;;;;;;;;5046324;28;20049;-66
2023/12/14 01:51:39;;;;;;;2.97;0.75;;;;;;;;;;5046019;28;20053;-62
2023/12/14 01:54:07;;;;;;;0.80;0.80;;;;;;;;;;5045252;28;20406;-64
2023/12/14 01:56:36;;;;;;;0.60;0.60;;;;;;;;;;5049369;28;20096;-62
2023/12/14 01:59:06;;;;;;;0.77;0.75;;;;;;;;;;5048112;28;20044;-61
2023/12/14 02:01:38;;;;;;;1.67;0.80;;;;;;;;;;5049440;28;20049;-62
2023/12/14 02:04:07;;;;;;;1.48;0.85;;;;;;;;;;5047534;28;20462;-62
2023/12/14 02:06:35;;;;;;;1.20;0.70;;;;;;;;;;5048729;28;20045;-60
2023/12/14 02:09:04;;;;;;;1.48;0.63;;;;;;;;;;5051127;28;20468;-62
2023/12/14 02:11:32;;;;;;;1.48;0.60;;;;;;;;;;5049629;28;20495;-62
2023/12/14 02:14:06;;;;;;;1.70;0.68;;;;;;;;;;5049947;28;20149;-62
2023/12/14 02:16:34;;;;;;;0.50;0.50;;;;;;;;;;5046369;28;20320;-62
2023/12/14 02:19:03;;;;;;;0.60;0.60;;;;;;;;;;5048240;28;20451;-62
2023/12/14 02:21:31;;;;;;;0.47;0.40;;;;;;;;;;5050493;28;20144;-61
2023/12/14 02:24:01;;;;;;;0.50;0.50;;;;;;;;;;5047955;28;20749;-62
2023/12/14 02:26:29;;;;;;;2.25;0.52;;;;;;;;;;5045955;28;20512;-63
2023/12/14 02:28:57;;;;;;;0.60;0.60;;;;;;;;;;5044043;28;20106;-63
2023/12/14 02:34:39;;;;;;;0.93;0.93;;;;;;;;;;5061956;22;20072;-86
2023/12/14 02:37:08;;;;;;;0.50;0.50;;;;;;;;;;5037829;28;20172;-86
2023/12/14 02:39:39;;;;;;;0.55;0.55;;;;;;;;;;5352418;22;20062;-86
2023/12/14 02:42:07;;;;;;;0.40;0.40;;;;;;;;;;5040902;28;20107;-86
2023/12/14 02:44:35;;;;;;;1.02;0.68;;;;;;;;;;5041663;28;20048;-86
2023/12/14 02:47:04;;;;;;;0.70;0.70;;;;;;;;;;5041703;28;20728;-86
2023/12/14 02:49:33;;;;;;;0.80;0.80;;;;;;;;;;5042007;28;20037;-86
2023/12/14 02:52:01;;;;;;;0.88;0.80;;;;;;;;;;5042916;28;20268;-86
2023/12/14 02:54:30;;;;;;;1.00;0.90;;;;;;;;;;5044707;28;20068;-86
2023/12/14 02:56:59;;;;;;;1.10;1.00;;;;;;;;;;5040099;28;20596;-86
2023/12/14 02:59:28;;;;;;;1.20;1.08;;;;;;;;;;5038568;28;20434;-86
2023/12/14 03:01:56;;;;;;;1.48;1.10;;;;;;;;;;5038858;28;20449;-86
2023/12/14 03:04:25;;;;;;;1.30;1.20;;;;;;;;;;5040809;28;20180;-86
2023/12/14 03:06:53;;;;;;;3.80;1.15;;;;;;;;;;5038134;28;20399;-85
2023/12/14 03:09:22;;;;;;;1.83;1.20;;;;;;;;;;5039782;28;20056;-86
2023/12/14 03:11:51;;;;;;;2.10;1.50;;;;;;;;;;5041259;28;20119;-86
2023/12/14 03:14:20;;;;;;;1.83;1.30;;;;;;;;;;5041451;28;20158;-86
2023/12/14 03:16:49;;;;;;;1.50;1.30;;;;;;;;;;5042745;28;20490;-86
2023/12/14 03:19:17;;;;;;;1.70;1.50;;;;;;;;;;5039724;28;20057;-87
2023/12/14 03:21:46;;;;;;;3.55;1.23;;;;;;;;;;5042659;28;20057;-87
2023/12/14 03:24:14;;;;;;;2.17;1.65;;;;;;;;;;5038345;28;20121;-86
2023/12/14 03:26:42;;;;;;;2.95;1.95;;;;;;;;;;5038667;28;21737;-86
2023/12/14 03:29:11;;;;;;;2.10;1.60;;;;;;;;;;5039187;28;20057;-86
2023/12/14 03:31:41;;;;;;;2.65;1.90;;;;;;;;;;5041701;28;20059;-86
2023/12/14 03:34:09;;;;;;;2.83;1.80;;;;;;;;;;5040184;28;20052;-86
2023/12/14 03:36:37;;;;;;;2.30;2.03;;;;;;;;;;5038410;28;20521;-86
2023/12/14 03:39:06;;;;;;;2.15;1.73;;;;;;;;;;5040623;28;20041;-86
2023/12/14 03:41:35;;;;;;;2.05;1.85;;;;;;;;;;5047136;28;20503;-86
2023/12/14 03:44:03;;;;;;;2.58;2.10;;;;;;;;;;5048087;28;20102;-86
2023/12/14 03:46:32;;;;;;;3.33;2.25;;;;;;;;;;5046485;28;20667;-87
2023/12/14 03:49:02;;;;;;;2.00;1.65;;;;;;;;;;5045482;28;20077;-86
2023/12/14 03:51:30;;;;;;;2.38;1.95;;;;;;;;;;5046187;28;20051;-86
2023/12/14 03:53:59;;;;;;;2.00;1.77;;;;;;;;;;5044338;28;20053;-86
2023/12/14 03:56:27;;;;;;;2.58;1.90;;;;;;;;;;5048675;28;20045;-86
2023/12/14 03:58:57;;;;;;;3.50;1.95;;;;;;;;;;5048714;28;20525;-86
2023/12/14 04:01:25;;;;;;;3.00;2.03;;;;;;;;;;5048079;28;20142;-86
2023/12/14 04:03:54;;;;;;;4.25;1.80;;;;;;;;;;5046862;28;20087;-86
2023/12/14 04:06:23;;;;;;;2.45;1.70;;;;;;;;;;5044602;28;20057;-86
2023/12/14 04:08:52;;;;;;;2.20;1.63;;;;;;;;;;5048371;28;20048;-86
2023/12/14 04:11:20;;;;;;;2.88;1.98;;;;;;;;;;5048447;28;20098;-86
2023/12/14 04:13:50;;;;;;;2.15;1.67;;;;;;;;;;5047979;28;20095;-86
2023/12/14 04:16:21;;;;;;;2.17;1.73;;;;;;;;;;5045377;28;20534;-86
2023/12/14 04:18:53;;;;;;;;;;;;;;;;;;5047279;28;20594;-86
2023/12/14 04:21:21;;;;;;;1.85;1.42;;;;;;;;;;5047622;28;20423;-86
2023/12/14 04:23:51;;;;;;;1.55;1.25;;;;;;;;;;5049183;28;20186;-86
2023/12/14 04:26:20;;;;;;;2.22;1.58;;;;;;;;;;5046056;28;20115;-85
2023/12/14 04:28:50;;;;;;;2.58;1.77;;;;;;;;;;5047838;28;20041;-86
2023/12/14 04:31:18;;;;;;;1.48;1.27;;;;;;;;;;5044568;28;20545;-86
2023/12/14 04:33:47;;;;;;;1.80;1.50;;;;;;;;;;5046423;28;20052;-86
2023/12/14 04:36:15;;;;;;;1.45;1.23;;;;;;;;;;5048337;28;20052;-86
2023/12/14 04:38:45;;;;;;;1.65;1.40;;;;;;;;;;5048095;28;20099;-86
2023/12/14 04:41:16;;;;;;;1.50;1.40;;;;;;;;;;5047537;28;20049;-86
2023/12/14 04:43:44;;;;;;;1.85;1.42;;;;;;;;;;5045481;28;20049;-86
2023/12/14 04:46:13;;;;;;;1.20;1.10;;;;;;;;;;5045949;28;20156;-86
2023/12/14 04:48:42;;;;;;;1.85;1.50;;;;;;;;;;5047965;28;20417;-86
2023/12/14 04:51:12;;;;;;;3.80;1.02;;;;;;;;;;5046044;28;20049;-86
2023/12/14 04:53:41;;;;;;;1.80;1.15;;;;;;;;;;5045109;28;20041;-86
2023/12/14 04:56:12;;;;;;;2.92;1.00;;;;;;;;;;5046587;28;20045;-86
2023/12/14 04:58:43;;;;;;;2.90;1.33;;;;;;;;;;5048195;28;20051;-86
2023/12/14 05:01:11;;;;;;;1.52;1.23;;;;;;;;;;5046090;28;20090;-86
2023/12/14 05:03:40;;;;;;;1.80;1.23;;;;;;;;;;5045282;28;20064;-86
2023/12/14 05:06:08;;;;;;;0.98;0.90;;;;;;;;;;5045596;28;20055;-86
2023/12/14 05:08:37;;;;;;;1.65;1.33;;;;;;;;;;5047643;28;20489;-86
2023/12/14 05:11:06;;;;;;;1.75;1.20;;;;;;;;;;5045742;28;20103;-86
2023/12/14 05:13:35;;;;;;;1.63;1.23;;;;;;;;;;5046430;28;20041;-86
2023/12/14 05:16:05;;;;;;;1.27;1.15;;;;;;;;;;5044891;28;20474;-86
2023/12/14 05:18:33;;;;;;;1.73;1.02;;;;;;;;;;5046624;28;20049;-86
2023/12/14 05:21:02;;;;;;;2.33;0.85;;;;;;;;;;5045260;28;20370;-86
2023/12/14 05:23:30;;;;;;;1.05;0.95;;;;;;;;;;5047489;28;20494;-86
2023/12/14 05:25:59;;;;;;;1.75;0.98;;;;;;;;;;5039379;28;20080;-86
2023/12/14 05:28:27;;;;;;;1.45;1.10;;;;;;;;;;5043319;28;20445;-92
2023/12/14 05:30:56;;;;;;;1.65;1.00;;;;;;;;;;5049888;28;20105;-89
2023/12/14 05:33:26;;;;;;;1.45;1.20;;;;;;;;;;5050411;28;20080;-87
2023/12/14 05:35:54;;;;;;;1.58;1.10;;;;;;;;;;5051188;28;20053;-88
2023/12/14 05:38:23;;;;;;;1.33;1.10;;;;;;;;;;5051835;28;20045;-89
2023/12/14 05:40:52;;;;;;;1.00;0.90;;;;;;;;;;5053117;28;20049;-88
2023/12/14 05:43:23;;;;;;;1.67;1.25;;;;;;;;;;5049873;28;20063;-91
2023/12/14 05:45:52;;;;;;;1.20;1.10;;;;;;;;;;5051445;28;20502;-87
2023/12/14 05:48:21;;;;;;;1.98;1.55;;;;;;;;;;5052063;28;20183;-88
2023/12/14 05:50:53;;;;;;;2.00;0.82;;;;;;;;;;5051413;28;20422;-88
2023/12/14 05:53:21;;;;;;;3.13;1.33;;;;;;;;;;5053621;28;20052;-89
2023/12/14 05:55:51;;;;;;;1.50;1.20;;;;;;;;;;5051234;28;20509;-90
2023/12/14 05:58:19;;;;;;;2.03;1.25;;;;;;;;;;5053319;28;20048;-89
2023/12/14 06:00:48;;;;;;;2.50;1.42;;;;;;;;;;5049859;28;20041;-89
2023/12/14 06:03:16;;;;;;;1.92;1.23;;;;;;;;;;5053141;28;20075;-87
2023/12/14 06:05:46;;;;;;;1.60;1.40;;;;;;;;;;5050027;28;20041;-90
2023/12/14 06:08:16;;;;;;;2.08;1.25;;;;;;;;;;5067594;28;20041;-89
2023/12/14 06:10:45;;;;;;;1.70;1.40;;;;;;;;;;5050132;28;20053;-88
2023/12/14 06:13:14;;;;;;;2.40;1.77;;;;;;;;;;5044355;28;20065;-86
2023/12/14 06:15:42;;;;;;;1.77;1.40;;;;;;;;;;5047312;28;20099;-89
2023/12/14 06:18:10;;;;;;;3.38;1.45;;;;;;;;;;5050438;28;20064;-88
2023/12/14 06:20:39;;;;;;;3.17;1.73;;;;;;;;;;5044288;28;20507;-90
2023/12/14 06:23:08;;;;;;;2.15;1.65;;;;;;;;;;5048201;28;20495;-87
2023/12/14 06:25:37;;;;;;;2.20;1.52;;;;;;;;;;5049493;28;20045;-87
2023/12/14 06:28:06;;;;;;;3.72;2.15;;;;;;;;;;5044290;28;20045;-89
2023/12/14 06:30:35;;;;;;;1.90;1.52;;;;;;;;;;5049952;28;20103;-89
2023/12/14 06:33:03;;;;;;;4.97;1.60;;;;;;;;;;5048342;28;20077;-87
2023/12/14 06:35:32;;;;;;;2.33;1.40;;;;;;;;;;5050127;28;20264;-85
2023/12/14 06:38:00;;;;;;;4.47;1.67;;;;;;;;;;5051502;28;20478;-88
2023/12/14 06:40:29;;;;;;;6.53;2.85;;;;;;;;;;5051059;28;20560;-89
2023/12/14 06:42:59;;;;;;;4.72;2.10;;;;;;;;;;5048507;28;20669;-89
2023/12/14 06:45:27;;;;;;;3.70;2.08;;;;;;;;;;5050783;28;20391;-91
2023/12/14 06:47:55;;;;;;;4.95;2.70;;;;;;;;;;5047940;28;20502;-88
2023/12/14 06:50:24;;;;;;;3.67;2.10;;;;;;;;;;5053015;28;20045;-88
2023/12/14 06:52:52;;;;;;;5.10;2.13;;;;;;;;;;5049677;28;20044;-92
2023/12/14 06:55:21;;;;;;;2.40;1.98;;;;;;;;;;5050616;28;20049;-88
2023/12/14 06:57:49;;;;;;;1.88;1.48;;;;;;;;;;5047105;28;20456;-89
2023/12/14 07:00:19;;;;;;;4.00;1.55;;;;;;;;;;5047383;28;20040;-88
2023/12/14 07:02:48;;;;;;;2.75;1.90;;;;;;;;;;5044008;28;20556;-88
2023/12/14 07:05:17;;;;;;;2.38;1.83;;;;;;;;;;5050540;28;20049;-88
2023/12/14 07:07:45;;;;;;;2.80;2.20;;;;;;;;;;5045583;28;20045;-87
2023/12/14 07:10:14;;;;;;;2.75;1.98;;;;;;;;;;5050372;28;20103;-88
2023/12/14 07:12:42;;;;;;;2.03;1.58;;;;;;;;;;5047847;28;20045;-87
2023/12/14 07:15:11;;;;;;;3.95;2.08;;;;;;;;;;5049499;28;20129;-87
2023/12/14 07:17:41;;;;;;;5.63;2.00;;;;;;;;;;5049369;28;20079;-87
2023/12/14 07:20:10;;;;;;;3.35;2.05;;;;;;;;;;5046136;28;20560;-89
2023/12/14 07:22:38;;;;;;;4.70;2.80;;;;;;;;;;5047103;28;20044;-88
2023/12/14 07:25:07;;;;;;;4.13;2.38;;;;;;;;;;5047943;28;20049;-87
2023/12/14 07:27:36;;;;;;;3.67;2.15;;;;;;;;;;5044711;28;20557;-87
2023/12/14 07:30:05;;;;;;;3.35;2.47;;;;;;;;;;5049996;28;20053;-88
2023/12/14 07:32:33;;;;;;;2.78;2.33;;;;;;;;;;5049628;28;20752;-87
2023/12/14 07:35:03;;;;;;;3.47;2.10;;;;;;;;;;5048602;28;20774;-88
2023/12/14 07:37:32;;;;;;;2.00;1.80;;;;;;;;;;5048176;28;20045;-88
2023/12/14 07:40:01;;;;;;;2.35;1.85;;;;;;;;;;5050087;28;20437;-87
2023/12/14 07:42:29;;;;;;;3.58;1.80;;;;;;;;;;5045430;28;20472;-88
2023/12/14 07:44:57;;;;;;;3.65;2.30;;;;;;;;;;5049671;28;20443;-88
2023/12/14 07:47:26;;;;;;;3.03;2.28;;;;;;;;;;5049119;28;20068;-88
2023/12/14 07:49:54;;;;;;;3.83;2.38;;;;;;;;;;5047334;28;20136;-87
2023/12/14 07:52:24;;;;;;;3.10;2.00;;;;;;;;;;5048599;28;20473;-87
2023/12/14 07:54:53;;;;;;;3.15;2.10;;;;;;;;;;5049891;28;20120;-89
2023/12/14 07:57:21;;;;;;;2.53;2.05;;;;;;;;;;5048091;28;20060;-88
2023/12/14 07:59:50;;;;;;;3.47;2.20;;;;;;;;;;5050011;28;20061;-88
2023/12/14 08:02:18;;;;;;;3.60;2.30;;;;;;;;;;5048208;28;20048;-88
2023/12/14 08:04:47;;;;;;;4.07;2.20;;;;;;;;;;5044200;28;20065;-87
2023/12/14 08:07:15;;;;;;;5.03;2.20;;;;;;;;;;5047611;28;20053;-88
2023/12/14 08:09:46;;;;;;;2.05;1.63;;;;;;;;;;5047765;28;20497;-87
2023/12/14 08:12:14;;;;;;;3.35;2.38;;;;;;;;;;5042748;28;20075;-88
2023/12/14 08:14:43;;;;;;;3.40;2.35;;;;;;;;;;5047617;28;20067;-89
2023/12/14 08:17:12;;;;;;;4.65;2.60;;;;;;;;;;5046983;28;20056;-88
2023/12/14 08:19:40;;;;;;;4.80;2.78;;;;;;;;;;5048110;28;20053;-88
2023/12/14 08:22:11;;;;;;;4.85;2.75;;;;;;;;;;5046003;28;20128;-87
2023/12/14 08:24:40;;;;;;;4.43;2.50;;;;;;;;;;5046334;28;20529;-88
2023/12/14 08:27:10;;;;;;;5.55;2.63;;;;;;;;;;5044426;28;20052;-89
2023/12/14 08:29:38;;;;;;;4.53;2.72;;;;;;;;;;5045100;28;20048;-87
2023/12/14 08:32:07;;;;;;;3.67;2.75;;;;;;;;;;5045777;28;20214;-87
2023/12/14 08:34:36;;;;;;;5.28;3.53;;;;;;;;;;5046478;28;20048;-88
2023/12/14 08:37:05;;;;;;;5.45;3.08;;;;;;;;;;5046412;28;20053;-90
2023/12/14 08:39:33;;;;;;;4.18;3.00;;;;;;;;;;5044323;28;20049;-88
2023/12/14 08:42:01;;;;;;;5.68;2.95;;;;;;;;;;5044245;28;20525;-88
2023/12/14 08:44:31;;;;;;;4.70;2.72;;;;;;;;;;5045686;28;20045;-87
2023/12/14 08:46:59;;;;;;;4.40;2.75;;;;;;;;;;5046336;28;20049;-88
2023/12/14 08:49:28;;;;;;;5.82;2.90;;;;;;;;;;5044392;28;20172;-89
2023/12/14 08:51:57;;;;;;;4.03;2.83;;;;;;;;;;5045572;28;20507;-88
2023/12/14 08:54:25;;;;;;;4.53;2.85;;;;;;;;;;5045565;28;20044;-90
2023/12/14 08:56:54;;;;;;;4.20;2.95;;;;;;;;;;5044701;28;20083;-88
2023/12/14 08:59:22;;;;;;;6.20;2.78;;;;;;;;;;5042256;28;20433;-89
2023/12/14 09:01:52;;;;;;;4.10;2.40;;;;;;;;;;5043564;28;20261;-91
2023/12/14 09:04:22;;;;;;;3.80;2.70;;;;;;;;;;5043397;28;20054;-88
2023/12/14 09:06:51;;;;;;;4.13;2.83;;;;;;;;;;5042459;28;20041;-88
2023/12/14 09:09:20;;;;;;;3.33;2.45;;;;;;;;;;5049847;28;20072;-93
2023/12/14 09:11:49;;;;;;;4.05;2.45;;;;;;;;;;5054333;28;20060;-94
2023/12/14 09:14:20;;;;;;;4.57;2.85;;;;;;;;;;5051412;28;20139;-94
2023/12/14 09:16:49;;;;;;;3.92;2.65;;;;;;;;;;5053407;28;20049;-94
2023/12/14 09:19:25;;;;;;;3.55;2.47;;;;;;;;;;5053854;28;20041;-94
2023/12/14 09:32:19;;;;;;;4.20;2.63;;;;;;;;;;5093858;28;19957;-94
2023/12/14 09:35:06;;;;;;;4.03;2.35;;;;;;;;;;5089356;28;20049;-94
2023/12/14 09:37:35;;;;;;;3.88;2.50;;;;;;;;;;5088688;28;20052;-94
2023/12/14 09:40:23;;;;;;;5.00;2.67;;;;;;;;;;5078630;22;21134;-85
2023/12/14 09:42:52;;;;;;;6.22;2.60;;;;;;;;;;5063992;28;20410;-83
2023/12/14 09:45:22;;;;;;;3.22;2.50;;;;;;;;;;5065139;28;20060;-83
2023/12/14 09:47:51;;;;;;;5.13;2.20;;;;;;;;;;5064821;28;20060;-85
2023/12/14 09:50:21;;;;;;;4.05;2.25;;;;;;;;;;5066667;28;20542;-85
2023/12/14 09:52:50;;;;;;;5.75;2.42;;;;;;;;;;5066452;28;20501;-85
2023/12/14 09:55:18;;;;;;;3.45;2.35;;;;;;;;;;5067096;28;20175;-85
2023/12/14 09:57:47;;;;;;;6.15;2.58;;;;;;;;;;5063869;28;20475;-85
2023/12/14 10:00:33;;;;;;;3.88;2.70;;;;;;;;;;5065821;28;20472;-85
2023/12/14 10:03:17;;;;;;;3.50;2.42;;;;;;;;;;5066748;28;20110;-86
2023/12/14 10:05:47;;;;;;;3.83;2.20;;;;;;;;;;5065710;28;20049;-86
2023/12/14 10:08:16;;;;;;;2.95;1.85;;;;;;;;;;5061972;28;20651;-86
2023/12/14 10:10:45;;;;;;;3.25;1.92;;;;;;;;;;5063397;28;20041;-87
2023/12/14 10:13:14;;;;;;;2.97;1.98;;;;;;;;;;5067821;28;20052;-87
2023/12/14 10:15:44;;;;;;;2.40;1.50;;;;;;;;;;5065322;28;20048;-84
2023/12/14 10:18:13;;;;;;;1.85;1.40;;;;;;;;;;5066510;28;20060;-88
2023/12/14 10:20:41;;;;;;;2.97;1.25;;;;;;;;;;5069627;28;20052;-88
2023/12/14 10:23:12;;;;;;;2.22;1.20;;;;;;;;;;5071914;28;20345;-88
2023/12/14 10:25:40;;;;;;;1.00;0.95;;;;;;;;;;5073000;28;20076;-86
2023/12/14 10:28:09;;;;;;;1.77;1.63;;;;;;;;;;5069317;28;20060;-86
2023/12/14 10:30:37;;;;;;;1.50;1.23;;;;;;;;;;5069519;28;20087;-88
2023/12/14 10:33:06;;;;;;;2.60;1.42;;;;;;;;;;5071248;28;20413;-87
2023/12/14 10:35:34;;;;;;;4.13;2.20;;;;;;;;;;5070919;28;20056;-87
2023/12/14 10:38:04;;;;;;;2.75;2.08;;;;;;;;;;5069550;28;20044;-88
2023/12/14 10:40:34;;;;;;;2.70;2.30;;;;;;;;;;5070722;28;20052;-87
2023/12/14 10:43:03;;;;;;;4.80;2.70;;;;;;;;;;5071779;28;20560;-86
2023/12/14 10:45:34;;;;;;;5.65;2.10;;;;;;;;;;5070863;28;20051;-87
2023/12/14 10:48:03;;;;;;;6.40;2.10;;;;;;;;;;5066269;28;20448;-87
2023/12/14 10:50:33;;;;;;;3.10;1.98;;;;;;;;;;5070784;28;20146;-88
2023/12/14 10:53:02;;;;;;;6.22;1.63;;;;;;;;;;5071667;28;20045;-89
2023/12/14 10:55:33;;;;;;;1.95;1.30;;;;;;;;;;5069748;28;20486;-87
2023/12/14 10:58:04;;;;;;;4.95;1.48;;;;;;;;;;5069312;28;20110;-88
2023/12/14 11:00:33;;;;;;;2.70;1.50;;;;;;;;;;5071269;28;20044;-87
2023/12/14 11:03:02;;;;;;;1.50;1.23;;;;;;;;;;5071067;28;20057;-87
2023/12/14 11:05:30;;;;;;;2.78;1.20;;;;;;;;;;5070399;28;20144;-89
2023/12/14 11:08:03;;;;;;;1.48;1.15;;;;;;;;;;5069617;28;20076;-87
2023/12/14 11:10:38;;;;;;;1.10;1.00;;;;;;;;;;5069785;28;20477;-86
2023/12/14 11:13:12;;;;;;;2.20;1.45;;;;;;;;;;5070681;28;20040;-85
2023/12/14 11:15:41;;;;;;;3.92;1.75;;;;;;;;;;5071534;28;20494;-85
2023/12/14 11:18:21;;;;;;;2.72;1.90;;;;;;;;;;5068759;28;20052;-86
2023/12/14 11:20:51;;;;;;;4.80;2.58;;;;;;;;;;5068682;28;20514;-86
2023/12/14 11:23:30;;;;;;;5.20;2.38;;;;;;;;;;5068147;28;20048;-86
2023/12/14 11:26:00;;;;;;;3.53;2.88;;;;;;;;;;5070196;28;20052;-85
2023/12/14 11:28:31;;;;;;;4.68;2.85;;;;;;;;;;5069414;28;20049;-85
2023/12/14 11:31:00;;;;;;;5.30;2.70;;;;;;;;;;5068857;28;20059;-86
2023/12/14 11:33:29;;;;;;;5.13;2.80;;;;;;;;;;5070688;28;20048;-85
2023/12/14 11:35:58;;;;;;;2.78;2.25;;;;;;;;;;5069934;28;20480;-85
2023/12/14 11:38:26;;;;;;;5.53;2.65;;;;;;;;;;5068916;28;20048;-85
2023/12/14 11:40:55;;;;;;;6.05;3.03;;;;;;;;;;5068084;28;20057;-84
2023/12/14 11:43:26;;;;;;;3.60;2.70;;;;;;;;;;5071792;28;20552;-85
2023/12/14 11:45:56;;;;;;;4.63;2.92;;;;;;;;;;5066337;28;20053;-84
2023/12/14 11:48:24;;;;;;;4.43;3.25;;;;;;;;;;5067666;28;20099;-84
2023/12/14 11:50:54;;;;;;;5.40;2.85;;;;;;;;;;5067869;28;20063;-84
2023/12/14 11:53:22;;;;;;;5.82;3.00;;;;;;;;;;5070494;28;20064;-84
2023/12/14 11:55:51;;;;;;;5.22;3.00;;;;;;;;;;5067169;28;20104;-85
2023/12/14 11:58:19;;;;;;;3.70;2.60;;;;;;;;;;5070094;28;20052;-84
2023/12/14 12:00:48;;;;;;;3.05;2.28;;;;;;;;;;5068160;28;20048;-85
2023/12/14 12:03:19;;;;;;;3.42;1.90;;;;;;;;;;5069050;28;20052;-85
2023/12/14 12:05:48;;;;;;;4.57;2.55;;;;;;;;;;5066106;28;20132;-85
2023/12/14 12:08:18;;;;;;;3.10;2.35;;;;;;;;;;5066465;28;20124;-86
2023/12/14 12:10:47;;;;;;;2.85;2.10;;;;;;;;;;5067909;28;20447;-85
2023/12/14 12:13:17;;;;;;;2.70;1.90;;;;;;;;;;5069422;28;20041;-86
2023/12/14 12:15:46;;;;;;;2.28;1.88;;;;;;;;;;5065214;28;20559;-86
2023/12/14 12:18:15;;;;;;;3.40;1.95;;;;;;;;;;5069256;28;20102;-86
2023/12/14 12:20:45;;;;;;;3.20;1.90;;;;;;;;;;5069026;28;20497;-87
2023/12/14 12:23:13;;;;;;;4.15;2.08;;;;;;;;;;5068595;28;20337;-86
2023/12/14 12:25:42;;;;;;;3.05;1.50;;;;;;;;;;5070444;28;20048;-86
2023/12/14 12:28:10;;;;;;;2.35;1.80;;;;;;;;;;5067564;28;20798;-84
2023/12/14 12:30:38;;;;;;;2.40;1.90;;;;;;;;;;5069215;28;20052;-87
2023/12/14 12:33:09;;;;;;;2.72;1.77;;;;;;;;;;5067278;28;20075;-86
2023/12/14 12:35:38;;;;;;;2.15;1.45;;;;;;;;;;5066663;28;20044;-86
2023/12/14 12:38:08;;;;;;;2.10;1.60;;;;;;;;;;5066229;28;20064;-85
2023/12/14 12:40:36;;;;;;;2.50;1.50;;;;;;;;;;5069118;28;20084;-85
2023/12/14 12:43:05;;;;;;;3.08;1.70;;;;;;;;;;5064001;28;20045;-87
2023/12/14 12:45:35;;;;;;;2.42;1.85;;;;;;;;;;5063942;28;20045;-87
2023/12/14 12:48:04;;;;;;;3.38;1.75;;;;;;;;;;5067218;28;20584;-87
2023/12/14 12:50:33;;;;;;;2.42;1.70;;;;;;;;;;5064795;28;20052;-86
2023/12/14 12:53:01;;;;;;;1.73;1.40;;;;;;;;;;5064619;28;20072;-86
2023/12/14 12:55:31;;;;;;;1.98;1.27;;;;;;;;;;5066944;28;20048;-86
2023/12/14 12:58:04;;;;;;;1.98;1.50;;;;;;;;;;5067659;28;20056;-85
2023/12/14 13:00:35;;;;;;;4.32;1.60;;;;;;;;;;5068037;28;20052;-85
2023/12/14 13:03:04;;;;;;;2.05;1.50;;;;;;;;;;5068048;28;20049;-85
2023/12/14 13:05:33;;;;;;;2.05;1.40;;;;;;;;;;5068583;28;20482;-85
2023/12/14 13:08:01;;;;;;;1.58;1.30;;;;;;;;;;5066102;28;20079;-85
2023/12/14 13:10:31;;;;;;;3.20;1.30;;;;;;;;;;5064773;28;20052;-85
2023/12/14 13:13:00;;;;;;;1.45;1.15;;;;;;;;;;5068365;28;20147;-85
2023/12/14 13:15:30;;;;;;;1.77;1.13;;;;;;;;;;5066207;28;20117;-86
2023/12/14 13:17:59;;;;;;;1.63;1.40;;;;;;;;;;5068250;28;20041;-85
2023/12/14 13:20:28;;;;;;;1.08;0.98;;;;;;;;;;5065416;28;20121;-85
2023/12/14 13:22:56;;;;;;;2.20;1.38;;;;;;;;;;5066360;28;20067;-86
2023/12/14 13:25:26;;;;;;;2.05;1.30;;;;;;;;;;5063848;28;20055;-84
2023/12/14 13:27:56;;;;;;;1.77;1.35;;;;;;;;;;5065349;28;20393;-83
2023/12/14 13:30:25;;;;;;;2.65;1.20;;;;;;;;;;5065728;28;20057;-84
2023/12/14 13:32:53;;;;;;;2.13;1.45;;;;;;;;;;5069670;28;20044;-83
2023/12/14 13:35:22;;;;;;;1.63;1.20;;;;;;;;;;5067154;28;20115;-82
2023/12/14 13:37:51;;;;;;;1.88;1.60;;;;;;;;;;5064553;28;20044;-83
2023/12/14 13:40:19;;;;;;;1.40;1.25;;;;;;;;;;5067446;28;20067;-83
2023/12/14 13:42:48;;;;;;;3.70;1.52;;;;;;;;;;5068220;28;20114;-85
2023/12/14 13:45:32;;;;;;;1.92;1.75;;;;;;;;;;5062635;28;21035;-85
2023/12/14 13:48:00;;;;;;;2.67;1.60;;;;;;;;;;5066209;28;20072;-84
2023/12/14 13:50:29;;;;;;;3.25;1.45;;;;;;;;;;5067340;28;20046;-84
2023/12/14 13:52:58;;;;;;;2.20;1.70;;;;;;;;;;5072836;28;20427;-83
2023/12/14 13:55:27;;;;;;;1.40;1.30;;;;;;;;;;5068341;28;20055;-84
2023/12/14 13:57:57;;;;;;;2.15;1.73;;;;;;;;;;5070926;28;20570;-83
2023/12/14 14:00:26;;;;;;;3.42;1.35;;;;;;;;;;5071109;28;20119;-86
2023/12/14 14:02:56;;;;;;;3.70;1.20;;;;;;;;;;5070840;28;20541;-84
2023/12/14 14:05:25;;;;;;;2.08;1.48;;;;;;;;;;5066441;28;20486;-84
2023/12/14 14:07:54;;;;;;;2.05;1.30;;;;;;;;;;5069173;28;20851;-84
2023/12/14 14:10:22;;;;;;;1.70;1.40;;;;;;;;;;5068765;28;20513;-84
2023/12/14 14:12:51;;;;;;;3.10;1.33;;;;;;;;;;5067275;28;20052;-84
2023/12/14 14:15:20;;;;;;;4.05;1.42;;;;;;;;;;5066151;28;20044;-84
2023/12/14 14:17:51;;;;;;;1.58;1.27;;;;;;;;;;5067463;28;20107;-84
2023/12/14 14:20:23;;;;;;;1.50;1.13;;;;;;;;;;5068512;28;20054;-84
2023/12/14 14:22:52;;;;;;;3.08;1.35;;;;;;;;;;5066382;28;20075;-84
2023/12/14 14:25:20;;;;;;;1.83;1.23;;;;;;;;;;5066345;28;20044;-84
2023/12/14 14:27:49;;;;;;;2.10;1.30;;;;;;;;;;5067819;28;20044;-83
2023/12/14 14:30:18;;;;;;;2.28;1.17;;;;;;;;;;5069978;28;20072;-83
2023/12/14 14:32:47;;;;;;;1.98;1.40;;;;;;;;;;5067006;28;20040;-84
2023/12/14 14:35:15;;;;;;;2.35;1.13;;;;;;;;;;5070646;28;20082;-84
2023/12/14 14:37:46;;;;;;;3.03;1.42;;;;;;;;;;5064619;28;20067;-85
2023/12/14 14:40:15;;;;;;;1.80;1.40;;;;;;;;;;5067377;28;20056;-84
2023/12/14 14:42:44;;;;;;;2.58;1.63;;;;;;;;;;5064557;28;20060;-84
2023/12/14 14:45:13;;;;;;;1.63;1.35;;;;;;;;;;5069243;28;20052;-84
2023/12/14 14:47:42;;;;;;;2.47;1.55;;;;;;;;;;5066789;28;20056;-84
2023/12/14 14:50:12;;;;;;;2.28;1.50;;;;;;;;;;5068217;28;20369;-84
2023/12/14 14:52:40;;;;;;;1.98;1.10;;;;;;;;;;5068347;28;20048;-83
2023/12/14 14:55:10;;;;;;;3.17;1.45;;;;;;;;;;5070291;28;20057;-83
2023/12/14 14:57:39;;;;;;;2.65;1.52;;;;;;;;;;5066909;28;20510;-84
2023/12/14 15:00:08;;;;;;;1.48;1.38;;;;;;;;;;5063958;28;20060;-84
2023/12/14 15:02:37;;;;;;;2.80;1.75;;;;;;;;;;5067835;28;20055;-84
2023/12/14 15:05:06;;;;;;;3.97;1.45;;;;;;;;;;5069015;28;20052;-84
2023/12/14 15:07:35;;;;;;;1.90;1.50;;;;;;;;;;5066922;28;20080;-85